Portada
METAR-TAF:

METAR-TAF

Aeropuertos :

Base Aérea de Beja

Beja, Portugal

latitud: 38-04-40N, longitud: 007-55-57W, altitud: 193 m

Observación

El informe se hizo hace 47 minutos, a las 19:00 UTC
Viento 17 kt del norte-noroeste
Temperatura 25°C
Humedad 34%
Presión 1013 hPa
Visibilidad 10 km o más
sin nubes por debajo de 1500 m y sin presencia de cumulonimbus.

METAR: LPBJ 241900Z 33017KT CAVOK 25/08 Q1013

Hora: 20:47 (19:47 UTC)

Pronóstico

El informe se hizo hace 2 horas y 36 minutos, a las 17:11 UTC
Pronóstico válido del 24 a las 18 UTC al 25 a las 18 UTC
Viento 15 kt del norte
Visibilidad 10 km o más
sin nubes por debajo de 1500 m y sin presencia de cumulonimbus.
Evolucionando progresivamente
del 24 a las 22 UTC al 25 a las 01 UTC
Viento 8 kt del norte-noreste

TAF: LPBJ 241711Z 2418/2518 35015KT CAVOK BECMG 2422/2501 02008KT

Observaciones y pronósticos meteorológicos de más de 4000 aeropuertos (mensajes METAR y TAF).

Los puntos amarillos y rojos representan las estaciones disponibles.

Ponga el ratón en el punto deseado para ver el nombre de la estación.

Haga clic para ver las observaciones y los pronósticos meteorológicos.

Para cambiar el mapa : haga clic en los botones verdes con una cruz de color negro para hacer un zoom, en el botón verde con un guión para alejar o en las flechas verdes para mapas adyacentes.


METAR-TAF: